createdAt,value
2018-05-04T00:01:55.864Z,57.10
2018-05-04T00:04:26.000Z,57.30
2018-05-04T00:07:02.506Z,57.10
2018-05-04T00:09:31.799Z,57.00
2018-05-04T00:12:01.703Z,57.20
2018-05-04T00:14:30.933Z,56.90
2018-05-04T00:17:00.813Z,57.20
2018-05-04T00:19:30.549Z,57.20
2018-05-04T00:22:04.616Z,56.90
2018-05-04T00:24:35.060Z,57.00
2018-05-04T00:27:04.866Z,57.00
2018-05-04T00:29:37.668Z,57.30
2018-05-04T00:32:07.669Z,57.00
2018-05-04T00:34:38.581Z,57.30
2018-05-04T00:37:08.349Z,57.30
2018-05-04T00:39:38.889Z,57.30
2018-05-04T00:42:07.846Z,57.30
2018-05-04T00:44:37.888Z,57.00
2018-05-04T00:47:08.888Z,57.10
2018-05-04T00:49:38.629Z,57.40
2018-05-04T00:52:07.656Z,57.20
2018-05-04T00:54:38.863Z,57.10
2018-05-04T00:57:08.558Z,57.40
2018-05-04T00:59:38.451Z,57.20
2018-05-04T01:02:07.812Z,57.40
2018-05-04T01:04:37.589Z,57.40
2018-05-04T01:07:06.860Z,57.20
2018-05-04T01:09:36.852Z,57.30
2018-05-04T01:12:06.648Z,57.50
2018-05-04T01:14:36.648Z,57.20
2018-05-04T01:17:06.505Z,57.50
2018-05-04T01:19:36.664Z,57.60
2018-05-04T01:22:07.635Z,57.10
2018-05-04T01:24:37.787Z,57.20
2018-05-04T01:27:07.649Z,57.50
2018-05-04T01:29:36.948Z,57.20
2018-05-04T01:32:05.966Z,57.50
2018-05-04T01:34:34.733Z,57.20
2018-05-04T01:37:04.452Z,57.20
2018-05-04T01:39:34.492Z,57.20
2018-05-04T01:42:03.812Z,57.50
2018-05-04T01:44:33.461Z,57.50
2018-05-04T01:47:03.463Z,57.20
2018-05-04T01:54:18.832Z,57.50
2018-05-04T01:56:48.377Z,57.50
2018-05-04T01:59:18.519Z,57.20
2018-05-04T02:01:49.673Z,57.50
2018-05-04T02:04:18.941Z,57.60
2018-05-04T02:06:49.480Z,57.50
2018-05-04T02:09:20.889Z,57.60
2018-05-04T02:11:53.595Z,57.40
2018-05-04T02:14:25.127Z,57.50
2018-05-04T02:16:59.488Z,57.60
2018-05-04T02:19:33.179Z,57.50
2018-05-04T02:22:03.064Z,57.50
2018-05-04T02:24:36.586Z,57.40
2018-05-04T02:27:06.348Z,57.40
2018-05-04T02:29:35.922Z,57.20
2018-05-04T02:32:05.684Z,57.30
2018-05-04T02:34:34.844Z,57.40
2018-05-04T02:37:05.941Z,57.40
2018-05-04T02:39:34.699Z,57.10
2018-05-04T02:42:03.851Z,57.10
2018-05-04T02:47:07.352Z,57.10
2018-05-04T02:49:37.644Z,57.10
2018-05-04T02:52:06.874Z,57.40
2018-05-04T02:54:40.334Z,57.40
2018-05-04T02:57:09.769Z,57.20
2018-05-04T02:59:39.833Z,57.40
2018-05-04T03:02:09.633Z,57.10
2018-05-04T03:04:39.717Z,57.10
2018-05-04T03:07:09.437Z,58.00
2018-05-04T03:09:39.770Z,57.70
2018-05-04T03:12:15.857Z,57.10
2018-05-04T03:14:46.793Z,57.40
2018-05-04T03:17:16.955Z,57.10
2018-05-04T03:19:45.854Z,57.10
2018-05-04T03:22:15.542Z,57.10
2018-05-04T03:27:36.202Z,57.00
2018-05-04T03:30:12.856Z,57.20
2018-05-04T03:32:43.845Z,57.40
2018-05-04T03:35:14.077Z,57.20
2018-05-04T03:37:44.133Z,57.20
2018-05-04T03:40:13.795Z,57.40
2018-05-04T03:42:43.485Z,57.40
2018-05-04T03:45:17.018Z,57.20
2018-05-04T03:47:48.454Z,57.50
2018-05-04T03:50:20.590Z,57.50
2018-05-04T03:52:50.463Z,57.40
2018-05-04T03:55:25.618Z,57.50
2018-05-04T03:58:20.436Z,57.50
2018-05-04T04:01:08.516Z,57.20
2018-05-04T04:03:56.489Z,57.50
2018-05-04T04:06:31.037Z,57.50
2018-05-04T04:09:00.889Z,57.50
2018-05-04T04:11:29.634Z,57.50
2018-05-04T04:13:58.905Z,57.30
2018-05-04T04:16:28.623Z,57.40
2018-05-04T04:18:58.691Z,57.50
2018-05-04T04:21:28.440Z,57.60
2018-05-04T04:23:57.852Z,57.50
2018-05-04T04:26:28.956Z,57.10
2018-05-04T04:28:58.074Z,57.20
2018-05-04T04:31:27.681Z,57.20
2018-05-04T04:33:57.706Z,57.50
2018-05-04T04:36:27.868Z,57.50
2018-05-04T04:38:56.819Z,57.20
2018-05-04T04:41:26.499Z,57.20
2018-05-04T04:43:55.745Z,57.20
2018-05-04T04:46:24.841Z,57.50
2018-05-04T04:49:04.393Z,57.20
2018-05-04T04:51:34.867Z,57.20
2018-05-04T04:54:04.603Z,57.50
2018-05-04T04:56:34.273Z,57.20
2018-05-04T04:59:03.794Z,57.50
2018-05-04T05:01:33.396Z,57.50
2018-05-04T05:04:03.539Z,57.50
2018-05-04T05:06:32.758Z,57.50
2018-05-04T05:09:02.867Z,57.50
2018-05-04T05:11:32.754Z,57.20
2018-05-04T05:14:02.696Z,57.20
2018-05-04T05:16:32.428Z,57.30
2018-05-04T05:19:02.387Z,57.50
2018-05-04T05:21:33.422Z,57.50
2018-05-04T05:24:02.976Z,57.50
2018-05-04T05:26:31.660Z,57.60
2018-05-04T05:29:00.844Z,57.40
2018-05-04T05:31:30.876Z,57.50
2018-05-04T05:33:59.639Z,57.20
2018-05-04T05:36:28.872Z,57.30
2018-05-04T05:38:58.818Z,57.50
2018-05-04T05:41:28.780Z,57.50
2018-05-04T05:43:57.829Z,57.50
2018-05-04T05:52:36.000Z,57.30
2018-05-04T05:55:05.576Z,57.40
2018-05-04T05:57:37.765Z,57.10
2018-05-04T06:00:09.538Z,57.30
2018-05-04T06:02:40.981Z,57.00
2018-05-04T06:05:12.903Z,57.30
2018-05-04T06:07:41.703Z,57.20
2018-05-04T06:10:11.440Z,56.90
2018-05-04T06:12:43.563Z,57.20
2018-05-04T06:15:13.440Z,57.20
2018-05-04T06:17:43.438Z,57.10
2018-05-04T06:20:13.438Z,57.20
2018-05-04T06:22:42.981Z,57.20
2018-05-04T06:25:16.697Z,56.90
2018-05-04T06:27:45.809Z,56.40
2018-05-04T06:30:16.568Z,56.70
2018-05-04T06:32:45.781Z,56.50
2018-05-04T06:35:17.343Z,56.80
2018-05-04T06:37:49.452Z,56.50
2018-05-04T06:40:20.798Z,56.80
2018-05-04T06:42:50.400Z,56.80
2018-05-04T06:45:20.801Z,56.80
2018-05-04T06:47:49.845Z,56.70
2018-05-04T06:50:20.785Z,56.50
2018-05-04T06:52:50.587Z,56.50
2018-05-04T06:55:20.735Z,56.60
2018-05-04T06:57:54.879Z,57.20
2018-05-04T07:00:24.580Z,57.40
2018-05-04T07:02:56.119Z,57.90
2018-05-04T07:05:36.244Z,58.20
2018-05-04T07:08:05.778Z,58.10
2018-05-04T07:10:34.946Z,58.00
2018-05-04T07:13:04.237Z,57.70
2018-05-04T07:15:33.801Z,57.70
2018-05-04T07:18:02.876Z,58.00
2018-05-04T07:20:32.472Z,57.70
2018-05-04T07:23:01.778Z,57.70
2018-05-04T07:25:31.475Z,58.00
2018-05-04T07:28:00.789Z,57.60
2018-05-04T07:30:30.451Z,57.90
2018-05-04T07:32:59.772Z,57.90
2018-05-04T07:35:29.482Z,58.20
2018-05-04T07:37:59.741Z,58.20
2018-05-04T07:40:29.666Z,58.10
2018-05-04T07:42:59.429Z,57.80
2018-05-04T07:45:28.850Z,58.20
2018-05-04T07:47:58.516Z,58.30
2018-05-04T08:51:16.436Z,59.70
2018-05-04T08:53:45.765Z,59.50
2018-05-04T08:56:15.502Z,59.40
2018-05-04T08:58:44.756Z,59.10
2018-05-04T09:01:14.809Z,59.30
2018-05-04T09:03:44.518Z,59.00
2018-05-04T09:06:18.358Z,59.00
2018-05-04T09:08:47.795Z,59.20
2018-05-04T09:11:16.833Z,59.20
2018-05-04T09:13:46.751Z,58.80
2018-05-04T09:16:16.411Z,58.90
2018-05-04T09:18:46.745Z,59.20
2018-05-04T09:21:16.512Z,59.20
2018-05-04T09:23:45.776Z,58.90
2018-05-04T09:26:14.951Z,59.10
2018-05-04T09:28:43.692Z,58.90
2018-05-04T09:31:12.805Z,58.80
2018-05-04T09:33:42.429Z,59.10
2018-05-04T09:36:11.812Z,58.80
2018-05-04T09:38:41.446Z,59.00
2018-05-04T09:41:11.786Z,59.10
2018-05-04T09:43:42.012Z,58.70
2018-05-04T09:46:10.864Z,59.00
2018-05-04T09:48:40.874Z,58.50
2018-05-04T09:51:10.790Z,58.70
2018-05-04T09:53:41.451Z,58.70
2018-05-04T09:56:10.989Z,58.60
2018-05-04T09:58:41.477Z,58.90
2018-05-04T10:01:11.733Z,58.90
2018-05-04T10:03:41.796Z,58.50
2018-05-04T10:06:11.581Z,58.80
2018-05-04T10:08:41.337Z,58.50
2018-05-04T10:11:11.460Z,58.80
2018-05-04T10:13:41.865Z,58.90
2018-05-04T10:16:11.522Z,58.80
2018-05-04T10:18:42.628Z,58.80
2018-05-04T10:21:11.808Z,58.80
2018-05-04T10:23:41.408Z,58.80
2018-05-04T10:26:10.813Z,58.50
2018-05-04T10:28:53.461Z,58.80
2018-05-04T10:31:26.769Z,58.60
2018-05-04T10:33:57.446Z,58.90
2018-05-04T10:36:27.815Z,58.50
2018-05-04T10:38:57.467Z,58.70
2018-05-04T10:41:27.445Z,58.50
2018-05-04T10:43:57.974Z,58.80
2018-05-04T10:46:26.802Z,58.80
2018-05-04T10:48:56.570Z,58.50
2018-05-04T10:51:25.945Z,58.50
2018-05-04T10:53:54.725Z,58.90
2018-05-04T10:56:24.596Z,58.60
2018-05-04T10:58:54.451Z,58.60
2018-05-04T11:01:24.458Z,59.10
2018-05-04T11:03:54.733Z,59.80
2018-05-04T11:06:24.454Z,59.80
2018-05-04T11:08:54.441Z,59.90
2018-05-04T11:11:25.049Z,61.30
2018-05-04T11:13:54.796Z,62.50
2018-05-04T11:16:23.945Z,63.20
2018-05-04T11:18:53.823Z,63.10
2018-05-04T11:21:23.487Z,63.30
2018-05-04T11:23:53.639Z,63.20
2018-05-04T11:26:24.253Z,63.80
2018-05-04T11:28:54.456Z,63.90
2018-05-04T11:31:26.714Z,63.80
2018-05-04T11:33:56.354Z,63.80
2018-05-04T11:36:27.448Z,63.80
2018-05-04T11:38:57.490Z,63.80
2018-05-04T11:41:27.460Z,63.70
2018-05-04T11:43:56.898Z,63.60
2018-05-04T11:46:26.883Z,63.00
2018-05-04T11:48:56.477Z,63.20
2018-05-04T11:51:25.838Z,63.30
2018-05-04T11:53:56.448Z,63.20
2018-05-04T11:56:25.823Z,63.30
2018-05-04T11:58:55.432Z,63.40
2018-05-04T12:01:24.897Z,63.00
2018-05-04T12:03:54.364Z,63.30
2018-05-04T12:06:23.792Z,62.70
2018-05-04T12:08:53.062Z,63.10
2018-05-04T12:11:22.681Z,62.60
2018-05-04T12:13:52.879Z,63.00
2018-05-04T12:16:22.805Z,62.90
2018-05-04T12:18:52.724Z,62.30
2018-05-04T12:21:22.424Z,62.40
2018-05-04T12:23:51.773Z,63.00
2018-05-04T12:26:21.788Z,62.50
2018-05-04T12:28:52.975Z,61.40
2018-05-04T12:31:22.361Z,61.60
2018-05-04T12:33:51.964Z,61.50
2018-05-04T12:36:20.702Z,62.00
2018-05-04T12:38:51.352Z,61.70
2018-05-04T12:41:20.865Z,61.40
2018-05-04T12:43:50.495Z,61.80
2018-05-04T12:46:20.419Z,61.40
2018-05-04T12:48:49.880Z,61.70
2018-05-04T12:51:18.822Z,61.50
2018-05-04T12:53:48.514Z,61.00
2018-05-04T12:56:17.749Z,60.90
2018-05-04T12:58:46.844Z,61.30
2018-05-04T13:01:16.415Z,60.80
2018-05-04T13:03:53.694Z,60.80
2018-05-04T13:06:24.428Z,61.00
2018-05-04T13:08:54.475Z,61.00
2018-05-04T13:11:23.783Z,61.00
2018-05-04T13:13:53.440Z,61.00
2018-05-04T13:16:24.435Z,60.60
2018-05-04T13:18:53.820Z,61.10
2018-05-04T13:21:23.832Z,60.90
2018-05-04T13:23:53.447Z,61.10
2018-05-04T13:26:22.956Z,60.70
2018-05-04T13:28:52.866Z,61.00
2018-05-04T13:31:23.686Z,60.70
2018-05-04T13:33:52.825Z,61.00
2018-05-04T13:36:22.434Z,61.00
2018-05-04T13:38:53.338Z,61.00
2018-05-04T13:41:23.536Z,61.00
2018-05-04T13:43:53.871Z,61.00
2018-05-04T13:46:23.541Z,61.10
2018-05-04T13:48:53.210Z,60.80
2018-05-04T13:51:22.862Z,61.20
2018-05-04T13:53:52.449Z,61.20
2018-05-04T13:56:21.762Z,60.70
2018-05-04T13:58:51.366Z,61.10
2018-05-04T14:01:20.849Z,60.60
2018-05-04T14:03:50.855Z,60.70
2018-05-04T14:06:21.464Z,60.90
2018-05-04T14:50:22.589Z,60.50
2018-05-04T14:52:51.833Z,60.80
2018-05-04T14:55:22.722Z,60.20
2018-05-04T14:57:51.860Z,60.40
2018-05-04T15:00:21.441Z,60.90
2018-05-04T15:02:51.409Z,60.40
2018-05-04T15:05:21.771Z,60.80
2018-05-04T15:07:51.520Z,60.70
2018-05-04T15:10:21.752Z,60.20
2018-05-04T15:12:50.995Z,61.30
2018-05-04T15:15:19.943Z,60.00
2018-05-04T15:17:48.668Z,60.00
2018-05-04T15:20:19.813Z,60.00
2018-05-04T15:22:49.679Z,60.30
2018-05-04T15:25:18.797Z,59.90
2018-05-04T15:27:47.845Z,60.20
2018-05-04T15:30:19.047Z,59.80
2018-05-04T15:32:49.381Z,59.90
2018-05-04T15:35:20.498Z,60.10
2018-05-04T15:37:49.754Z,60.10
2018-05-04T15:40:21.815Z,60.20
2018-05-04T15:42:51.417Z,59.80
2018-05-04T15:45:20.780Z,59.80
2018-05-04T15:47:50.522Z,60.00
2018-05-04T15:50:27.507Z,59.90
2018-05-04T15:52:57.423Z,60.30
2018-05-04T15:55:27.419Z,60.40
2018-05-04T15:57:57.761Z,60.70
2018-05-04T16:00:27.631Z,61.50
2018-05-04T16:02:56.991Z,60.50
2018-05-04T16:05:28.434Z,61.10
2018-05-04T16:07:58.357Z,60.90
2018-05-04T16:10:28.891Z,61.60
2018-05-04T16:12:57.723Z,61.50
2018-05-04T16:15:26.825Z,61.20
2018-05-04T16:17:56.430Z,61.00
2018-05-04T16:20:26.731Z,61.30
2018-05-04T16:22:56.442Z,61.60
2018-05-04T16:25:25.801Z,61.20
2018-05-04T16:27:56.709Z,61.00
2018-05-04T16:30:26.392Z,61.20
2018-05-04T16:32:55.848Z,61.70
2018-05-04T16:35:25.402Z,61.40
2018-05-04T16:37:54.784Z,60.90
2018-05-04T16:40:24.421Z,61.30
2018-05-04T16:42:53.798Z,60.90
2018-05-04T16:45:23.682Z,61.20
2018-05-04T16:47:58.599Z,60.80
2018-05-04T16:50:28.463Z,61.20
2018-05-04T16:52:58.394Z,61.20
2018-05-04T16:55:27.988Z,61.10
2018-05-04T16:57:57.491Z,61.10
2018-05-04T17:00:27.914Z,60.90
2018-05-04T17:02:56.681Z,60.80
2018-05-04T17:05:26.435Z,60.50
2018-05-04T17:07:56.437Z,60.80
2018-05-04T17:10:26.436Z,60.70
2018-05-04T17:12:56.449Z,60.80
2018-05-04T17:15:29.530Z,60.70
2018-05-04T17:18:05.832Z,60.70
2018-05-04T17:20:35.380Z,60.70
2018-05-04T17:23:05.002Z,60.20
2018-05-04T17:25:34.603Z,60.50
2018-05-04T17:28:04.397Z,60.40
2018-05-04T17:30:34.794Z,60.50
2018-05-04T17:33:03.883Z,61.20
2018-05-04T17:35:32.733Z,60.00
2018-05-04T17:38:03.863Z,60.00
2018-05-04T17:40:33.646Z,60.00
2018-05-04T17:43:02.883Z,59.90
2018-05-04T17:48:13.478Z,60.00
2018-05-04T17:50:43.274Z,60.00
2018-05-04T17:53:12.967Z,60.00
2018-05-04T17:55:41.695Z,59.90
2018-05-04T17:58:11.429Z,59.60
2018-05-04T18:00:40.812Z,59.80
2018-05-04T18:03:10.334Z,59.80
2018-05-04T18:05:40.650Z,59.60
2018-05-04T18:08:09.991Z,60.00
2018-05-04T18:10:39.510Z,60.20
2018-05-04T18:13:09.439Z,60.20
2018-05-04T18:15:39.701Z,60.70
2018-05-04T18:18:09.551Z,60.80
2018-05-04T18:20:40.222Z,60.80
2018-05-04T18:23:10.435Z,60.80
2018-05-04T18:25:40.437Z,60.80
2018-05-04T18:28:09.901Z,60.80
2018-05-04T18:30:39.366Z,60.80
2018-05-04T18:33:08.852Z,60.40
2018-05-04T18:35:46.814Z,60.70
2018-05-04T18:38:16.477Z,60.30
2018-05-04T18:40:50.812Z,60.60
2018-05-04T18:43:20.652Z,60.60
2018-05-04T18:45:51.481Z,60.20
2018-05-04T18:48:22.724Z,60.50
2018-05-04T18:50:52.679Z,60.40
2018-05-04T18:53:22.492Z,60.00
2018-05-04T18:55:56.447Z,60.30
2018-05-04T18:58:25.870Z,60.20
2018-05-04T19:00:55.506Z,60.20
2018-05-04T19:03:25.328Z,59.80
2018-05-04T19:05:59.074Z,60.00
2018-05-04T19:08:28.872Z,60.00
2018-05-04T19:10:58.921Z,59.90
2018-05-04T19:13:43.775Z,59.60
2018-05-04T19:16:16.499Z,59.50
2018-05-04T19:18:46.875Z,59.70
2018-05-04T19:21:16.979Z,59.70
2018-05-04T19:23:46.606Z,59.30
2018-05-04T19:26:17.734Z,59.30
2018-05-04T19:28:47.423Z,59.50
2018-05-04T19:31:19.319Z,60.00
2018-05-04T19:33:50.452Z,59.30
2018-05-04T19:36:21.504Z,59.20
2018-05-04T19:38:50.859Z,59.20
2018-05-04T19:41:29.009Z,59.20
2018-05-04T19:43:59.547Z,59.00
2018-05-04T19:48:57.797Z,59.10
2018-05-04T19:51:28.563Z,58.90
2018-05-04T19:54:03.335Z,58.90
2018-05-04T19:56:38.442Z,59.10
2018-05-04T19:59:10.530Z,59.10
2018-05-04T20:01:43.359Z,59.10
2018-05-04T20:04:25.504Z,59.10
2018-05-04T20:06:56.297Z,59.00
2018-05-04T20:09:39.498Z,58.70
2018-05-04T20:12:12.489Z,59.00
2018-05-04T20:14:41.858Z,59.00
2018-05-04T20:17:11.443Z,59.00
2018-05-04T20:19:53.866Z,58.70
2018-05-04T20:22:26.477Z,59.00
2018-05-04T20:24:57.860Z,58.70
2018-05-04T20:27:28.463Z,58.90
2018-05-04T20:29:58.477Z,58.90
2018-05-04T20:32:34.961Z,58.90
2018-05-04T20:35:04.618Z,59.00
2018-05-04T20:37:35.618Z,59.10
2018-05-04T20:40:08.981Z,59.10
2018-05-04T20:42:39.559Z,59.10
2018-05-04T20:49:39.702Z,59.00
2018-05-04T20:52:09.461Z,58.70
2018-05-04T20:54:39.940Z,58.50
2018-05-04T20:57:10.609Z,58.80
2018-05-04T20:59:40.995Z,58.70
2018-05-04T21:02:16.452Z,58.90
2018-05-04T21:04:46.821Z,58.60
2018-05-04T21:07:16.528Z,59.00
2018-05-04T21:09:47.445Z,59.00
2018-05-04T21:12:18.016Z,59.00
2018-05-04T21:14:47.768Z,59.00
2018-05-04T21:17:17.701Z,59.10
2018-05-04T21:19:47.725Z,58.80
2018-05-04T21:22:17.012Z,59.00
2018-05-04T21:24:49.490Z,58.80
2018-05-04T21:27:18.884Z,59.10
2018-05-04T21:29:48.438Z,59.10
2018-05-04T21:32:17.787Z,58.90
2018-05-04T21:34:49.910Z,59.10
2018-05-04T21:37:19.104Z,58.90
2018-05-04T21:39:54.786Z,58.90
2018-05-04T21:42:24.491Z,59.20
2018-05-04T21:44:53.954Z,58.90
2018-05-04T21:47:23.687Z,59.00
2018-05-04T21:49:53.370Z,58.90
2018-05-04T21:52:24.652Z,59.20
2018-05-04T21:54:54.495Z,59.30
2018-05-04T21:57:24.503Z,59.30
2018-05-04T21:59:54.660Z,59.30
2018-05-04T22:02:23.833Z,59.20
2018-05-04T22:04:53.407Z,59.30
2018-05-04T22:07:22.872Z,59.00
2018-05-04T22:09:53.567Z,59.30
2018-05-04T22:12:23.933Z,59.30
2018-05-04T22:14:52.889Z,59.30
2018-05-04T22:17:22.481Z,59.00
2018-05-04T22:22:33.825Z,59.30
2018-05-04T22:25:03.485Z,59.30
2018-05-04T22:27:32.844Z,59.10
2018-05-04T22:30:02.869Z,59.30
2018-05-04T22:32:32.787Z,59.10
2018-05-04T22:35:02.722Z,59.10
2018-05-04T22:37:32.451Z,59.00
2018-05-04T22:40:02.560Z,59.70
2018-05-04T22:42:32.494Z,59.40
2018-05-04T22:48:03.377Z,59.30
2018-05-04T22:50:33.534Z,59.00
2018-05-04T22:53:03.482Z,59.40
2018-05-04T22:55:33.051Z,59.30
2018-05-04T22:58:02.940Z,59.30
2018-05-04T23:00:32.459Z,59.30
2018-05-04T23:03:04.053Z,59.10
2018-05-04T23:05:33.952Z,59.30
2018-05-04T23:08:04.223Z,59.30
2018-05-04T23:10:34.501Z,59.10
2018-05-04T23:13:17.751Z,59.40
2018-05-04T23:15:46.957Z,59.40
2018-05-04T23:20:59.032Z,59.40
2018-05-04T23:23:27.901Z,59.40
2018-05-04T23:25:56.857Z,59.10
2018-05-04T23:28:27.577Z,58.90
2018-05-04T23:30:56.861Z,59.00
2018-05-04T23:33:28.196Z,59.40
2018-05-04T23:35:58.505Z,59.10
2018-05-04T23:38:27.956Z,59.40
2018-05-04T23:40:56.734Z,59.40
2018-05-04T23:43:26.650Z,59.10
2018-05-04T23:49:18.478Z,59.30
2018-05-04T23:51:47.805Z,60.00
2018-05-04T23:54:17.462Z,59.30
2018-05-04T23:56:46.865Z,59.10
2018-05-04T23:59:17.458Z,59.10
